Time;durP1;ratioP1;P1;durP2;ratioP2;P2;SDS_P1;SDS_P2;PMS_P1;PMS_P2;Temp;Humidity;BMP_temperature;BMP_pressure;BME280_temperature;BME280_humidity;BME280_pressure;Samples;Min_cycle;Max_cycle;Signal;HPM_P1;HPM_P2
2021/08/21 00:03:11;;;;;;;4.05;2.70;;;22.00;64.50;;;;;;10142623;28;20276;-61
2021/08/21 00:08:02;;;;;;;3.03;2.13;;;22.00;64.80;;;;;;10145741;28;20124;-60
2021/08/21 00:12:53;;;;;;;4.28;2.45;;;21.80;65.20;;;;;;10135756;28;20044;-59
2021/08/21 00:17:44;;;;;;;3.55;2.25;;;21.70;65.40;;;;;;10141141;28;20025;-60
2021/08/21 00:22:34;;;;;;;2.53;1.98;;;21.70;65.80;;;;;;10145163;28;20020;-59
2021/08/21 00:27:27;;;;;;;4.15;2.50;;;21.60;66.00;;;;;;10138491;28;20103;-60
2021/08/21 00:32:17;;;;;;;3.40;2.22;;;21.50;66.20;;;;;;10138409;28;20024;-60
2021/08/21 00:37:08;;;;;;;3.30;1.95;;;21.40;66.40;;;;;;10133688;28;20132;-59
2021/08/21 00:41:59;;;;;;;3.88;2.42;;;21.40;66.50;;;;;;10144665;28;20028;-60
2021/08/21 00:47:05;;;;;;;2.78;2.28;;;21.40;66.70;;;;;;10132328;28;20171;-59
2021/08/21 00:51:56;;;;;;;4.43;2.65;;;21.30;67.20;;;;;;10141197;28;20031;-60
2021/08/21 00:56:51;;;;;;;3.35;2.20;;;21.30;66.60;;;;;;10136614;28;20032;-60
2021/08/21 01:01:41;;;;;;;4.25;2.70;;;21.30;67.00;;;;;;10136871;28;20020;-60
2021/08/21 01:06:32;;;;;;;3.05;2.20;;;21.20;67.30;;;;;;10142547;28;20784;-59
2021/08/21 01:11:23;;;;;;;3.75;2.35;;;21.20;67.30;;;;;;10140629;28;20117;-60
2021/08/21 01:16:15;;;;;;;3.65;2.40;;;21.10;67.40;;;;;;10139469;28;20032;-60
2021/08/21 01:21:06;;;;;;;3.95;2.53;;;21.10;67.70;;;;;;10143172;28;20071;-60
2021/08/21 01:25:57;;;;;;;3.63;2.75;;;21.00;67.80;;;;;;10123769;28;20039;-60
2021/08/21 01:30:48;;;;;;;4.70;2.40;;;21.10;67.80;;;;;;10154610;28;20038;-59
2021/08/21 01:35:38;;;;;;;4.95;2.38;;;21.00;68.00;;;;;;10142959;28;20498;-59
2021/08/21 01:40:29;;;;;;;3.60;2.35;;;20.90;68.60;;;;;;10148460;28;20044;-59
2021/08/21 01:45:20;;;;;;;3.55;2.42;;;21.00;68.50;;;;;;10146022;28;20086;-59
2021/08/21 01:50:17;;;;;;;3.63;2.63;;;21.00;68.50;;;;;;10142404;28;20502;-59
2021/08/21 01:55:08;;;;;;;4.72;2.58;;;20.80;69.50;;;;;;10137481;28;20024;-59
2021/08/21 01:59:59;;;;;;;4.55;2.85;;;20.90;68.80;;;;;;10142179;28;20052;-59
2021/08/21 02:04:49;;;;;;;6.32;2.40;;;20.90;69.00;;;;;;10150169;28;20123;-59
2021/08/21 02:09:40;;;;;;;4.57;2.55;;;20.80;69.00;;;;;;10130778;28;20120;-59
2021/08/21 02:14:32;;;;;;;3.80;2.38;;;20.70;69.50;;;;;;10113903;28;20044;-60
2021/08/21 02:19:23;;;;;;;4.90;3.03;;;20.50;69.90;;;;;;10109378;28;20532;-59
2021/08/21 02:24:15;;;;;;;4.20;2.55;;;20.50;70.00;;;;;;10099839;28;20029;-60
2021/08/21 02:29:07;;;;;;;5.22;2.60;;;20.50;70.30;;;;;;10104000;28;20412;-59
2021/08/21 02:33:57;;;;;;;6.95;2.65;;;20.50;70.80;;;;;;10112688;28;20024;-60
2021/08/21 02:38:48;;;;;;;4.78;2.55;;;20.40;70.30;;;;;;10101507;28;20435;-59
2021/08/21 02:43:39;;;;;;;3.72;2.92;;;20.50;70.40;;;;;;10098578;28;20032;-60
2021/08/21 02:48:29;;;;;;;5.90;3.67;;;20.30;70.80;;;;;;10103629;28;20029;-60
2021/08/21 02:53:20;;;;;;;2.85;2.38;;;20.30;71.00;;;;;;10105625;28;20032;-60
2021/08/21 02:58:11;;;;;;;5.13;2.53;;;20.20;71.20;;;;;;10103686;28;20524;-59
2021/08/21 03:03:01;;;;;;;2.20;2.05;;;20.20;71.00;;;;;;10103794;28;20494;-60
2021/08/21 03:07:52;;;;;;;3.58;2.90;;;20.20;71.10;;;;;;10109108;28;20043;-59
2021/08/21 03:12:43;;;;;;;3.78;2.78;;;20.00;71.40;;;;;;10135801;28;20036;-59
2021/08/21 03:17:33;;;;;;;5.00;2.65;;;20.10;71.50;;;;;;10139426;28;20051;-60
2021/08/21 03:22:24;;;;;;;4.05;2.40;;;20.00;71.30;;;;;;10135442;28;20024;-59
2021/08/21 03:27:15;;;;;;;4.57;2.40;;;20.00;71.90;;;;;;10139220;28;20028;-59
2021/08/21 03:32:06;;;;;;;3.92;2.78;;;20.10;71.50;;;;;;10147415;28;20028;-59
2021/08/21 03:36:56;;;;;;;4.40;2.97;;;19.80;72.10;;;;;;10121904;28;20028;-60
2021/08/21 03:41:47;;;;;;;4.07;3.10;;;19.90;72.20;;;;;;10141469;28;20123;-59
2021/08/21 03:46:38;;;;;;;4.95;2.97;;;19.80;72.30;;;;;;10135206;28;20393;-60
2021/08/21 03:51:29;;;;;;;3.40;2.90;;;19.60;72.70;;;;;;10133277;28;20031;-60
2021/08/21 03:56:20;;;;;;;4.25;2.65;;;19.40;72.90;;;;;;10142576;28;20086;-59
2021/08/21 04:01:10;;;;;;;5.30;3.08;;;19.30;73.30;;;;;;10143096;28;20044;-60
2021/08/21 04:06:01;;;;;;;6.38;2.95;;;19.30;73.30;;;;;;10141851;28;20024;-60
2021/08/21 04:10:52;;;;;;;4.25;3.25;;;19.40;73.00;;;;;;10150359;28;20047;-60
2021/08/21 04:15:43;;;;;;;4.25;3.20;;;19.40;73.10;;;;;;10136029;28;20025;-60
2021/08/21 04:20:33;;;;;;;4.45;3.28;;;19.20;73.50;;;;;;10141229;28;20063;-60
2021/08/21 04:25:24;;;;;;;4.75;2.63;;;19.40;73.30;;;;;;10138648;28;20039;-60
2021/08/21 04:30:14;;;;;;;4.28;2.92;;;19.50;73.30;;;;;;10137338;28;20024;-59
2021/08/21 04:35:06;;;;;;;5.97;3.58;;;19.50;73.50;;;;;;10150968;28;20093;-60
2021/08/21 04:39:56;;;;;;;4.40;3.03;;;19.40;73.80;;;;;;10126094;28;20086;-60
2021/08/21 04:44:47;;;;;;;3.92;2.88;;;19.40;73.90;;;;;;10133595;28;20044;-61
2021/08/21 04:49:38;;;;;;;3.33;2.90;;;19.40;74.10;;;;;;10139001;28;20081;-60
2021/08/21 04:54:28;;;;;;;3.85;3.13;;;19.50;73.90;;;;;;10138720;28;20034;-61
2021/08/21 04:59:19;;;;;;;4.88;3.13;;;19.60;74.00;;;;;;10148062;28;20124;-60
2021/08/21 05:04:10;;;;;;;4.88;3.17;;;19.60;74.00;;;;;;10154068;28;20021;-60
2021/08/21 05:09:00;;;;;;;4.80;3.28;;;19.50;74.20;;;;;;10147779;28;20542;-60
2021/08/21 05:13:51;;;;;;;4.18;3.10;;;19.50;74.30;;;;;;10132720;28;20097;-60
2021/08/21 05:18:47;;;;;;;7.05;3.33;;;19.60;74.30;;;;;;10150148;28;20052;-61
2021/08/21 05:23:39;;;;;;;5.45;3.45;;;19.60;74.30;;;;;;10145423;28;20142;-59
2021/08/21 05:28:30;;;;;;;6.10;3.55;;;19.40;74.70;;;;;;10138835;28;20413;-60
2021/08/21 05:33:21;;;;;;;8.57;3.80;;;19.40;74.80;;;;;;10148434;28;20024;-59
2021/08/21 05:38:12;;;;;;;4.47;3.13;;;19.30;75.10;;;;;;10144758;28;20686;-60
2021/08/21 05:43:03;;;;;;;4.22;2.90;;;19.30;75.10;;;;;;10149919;28;20185;-59
2021/08/21 05:47:54;;;;;;;4.88;3.10;;;19.50;75.00;;;;;;10151556;28;20094;-59
2021/08/21 05:52:46;;;;;;;5.68;3.03;;;19.60;74.90;;;;;;10149371;28;20115;-59
2021/08/21 05:57:36;;;;;;;3.92;3.47;;;19.60;75.00;;;;;;10121943;28;20040;-59
2021/08/21 06:02:27;;;;;;;4.07;3.05;;;19.50;75.30;;;;;;10150811;28;20024;-60
2021/08/21 06:07:18;;;;;;;6.07;3.28;;;19.60;75.50;;;;;;10149039;28;20030;-61
2021/08/21 06:12:08;;;;;;;6.50;3.45;;;19.50;75.40;;;;;;10128290;28;20048;-59
2021/08/21 06:16:59;;;;;;;5.88;2.97;;;19.50;75.60;;;;;;10149063;28;20081;-59
2021/08/21 06:21:50;;;;;;;7.93;3.72;;;19.50;75.90;;;;;;10153732;28;20147;-58
2021/08/21 06:26:40;;;;;;;6.30;3.30;;;19.60;75.90;;;;;;10146115;28;20027;-59
2021/08/21 06:31:32;;;;;;;6.53;3.53;;;19.70;75.80;;;;;;10141401;28;20024;-61
2021/08/21 06:36:23;;;;;;;5.40;3.63;;;19.80;75.70;;;;;;10141483;28;20085;-60
2021/08/21 06:41:14;;;;;;;6.20;3.78;;;19.80;75.60;;;;;;10143433;28;20047;-60
2021/08/21 06:46:04;;;;;;;5.25;3.63;;;19.80;75.60;;;;;;10141693;28;20027;-60
2021/08/21 06:50:55;;;;;;;7.18;3.83;;;19.90;75.60;;;;;;10145991;28;20077;-59
2021/08/21 06:55:47;;;;;;;4.72;3.17;;;20.00;75.70;;;;;;10147999;28;20482;-59
2021/08/21 07:00:38;;;;;;;5.00;4.40;;;20.10;75.30;;;;;;10138022;28;20040;-59
2021/08/21 07:05:29;;;;;;;5.63;3.90;;;20.20;75.30;;;;;;10142120;28;20677;-59
2021/08/21 07:10:20;;;;;;;6.80;3.90;;;20.30;75.30;;;;;;10155174;28;20352;-60
2021/08/21 07:15:11;;;;;;;6.85;4.45;;;20.40;75.00;;;;;;10138949;28;20034;-60
2021/08/21 07:20:02;;;;;;;8.13;4.78;;;20.50;74.90;;;;;;10147686;28;20325;-60
2021/08/21 07:24:54;;;;;;;5.30;4.53;;;20.50;75.10;;;;;;10143023;28;20059;-60
2021/08/21 07:29:44;;;;;;;7.68;4.70;;;20.60;75.10;;;;;;10136965;28;20024;-59
2021/08/21 07:34:36;;;;;;;6.85;4.53;;;20.80;74.70;;;;;;10143270;28;20063;-60
2021/08/21 07:39:27;;;;;;;7.30;4.50;;;20.80;74.70;;;;;;10139414;28;20124;-60
2021/08/21 07:44:18;;;;;;;11.15;5.60;;;20.80;74.70;;;;;;10142579;28;20099;-59
2021/08/21 07:49:08;;;;;;;6.82;4.60;;;21.00;74.60;;;;;;10137519;28;20118;-60
2021/08/21 07:53:59;;;;;;;6.60;4.53;;;21.20;74.40;;;;;;10130005;28;20020;-59
2021/08/21 07:58:49;;;;;;;7.35;5.35;;;21.20;74.30;;;;;;10148995;28;20046;-60
2021/08/21 08:03:40;;;;;;;8.18;4.53;;;21.20;74.20;;;;;;10164564;28;20015;-59
2021/08/21 08:08:31;;;;;;;8.18;4.45;;;21.40;73.90;;;;;;10152355;28;20043;-60
2021/08/21 08:13:22;;;;;;;7.40;3.90;;;21.40;74.00;;;;;;10157876;28;20036;-59
2021/08/21 08:18:13;;;;;;;7.72;4.55;;;21.50;73.80;;;;;;10151600;28;20044;-60
2021/08/21 08:23:04;;;;;;;5.93;3.55;;;21.70;73.40;;;;;;10139566;28;20445;-60
2021/08/21 08:27:55;;;;;;;5.22;4.05;;;21.60;73.30;;;;;;10136011;28;20031;-60
2021/08/21 08:32:45;;;;;;;6.03;3.80;;;21.70;73.30;;;;;;10142391;28;20020;-60
2021/08/21 08:37:37;;;;;;;5.20;3.88;;;22.00;72.90;;;;;;10134939;28;20468;-60
2021/08/21 08:42:28;;;;;;;6.65;2.92;;;22.10;72.60;;;;;;10136569;28;20025;-67
2021/08/21 08:47:19;;;;;;;6.53;2.67;;;22.30;72.20;;;;;;10140031;28;20029;-59
2021/08/21 08:52:10;;;;;;;3.42;2.88;;;22.30;72.20;;;;;;10123717;28;20585;-60
2021/08/21 08:57:01;;;;;;;4.65;3.13;;;22.30;72.10;;;;;;10141268;28;20074;-59
2021/08/21 09:01:51;;;;;;;6.22;4.40;;;22.40;72.10;;;;;;10141754;28;20028;-60
2021/08/21 09:06:42;;;;;;;4.75;3.38;;;22.60;71.70;;;;;;10146562;28;20033;-61
2021/08/21 09:11:41;;;;;;;5.38;3.35;;;22.80;71.50;;;;;;10135020;28;20398;-60
2021/08/21 09:16:31;;;;;;;4.63;3.40;;;22.90;71.30;;;;;;10141350;28;20023;-59
2021/08/21 09:21:22;;;;;;;4.55;3.20;;;23.00;71.00;;;;;;10137662;28;20051;-60
2021/08/21 09:26:20;;;;;;;5.15;3.50;;;23.00;71.00;;;;;;10147374;28;20028;-59
2021/08/21 09:31:22;;;;;;;7.07;3.25;;;23.20;70.70;;;;;;10143628;28;20029;-60
2021/08/21 09:36:13;;;;;;;5.32;3.35;;;23.30;70.50;;;;;;10138237;28;20617;-59
2021/08/21 09:41:07;;;;;;;5.70;2.80;;;23.40;70.40;;;;;;10139686;28;20344;-60
2021/08/21 09:46:14;;;;;;;5.23;3.43;;;23.50;70.00;;;;;;10150058;28;20566;-61
2021/08/21 09:51:08;;;;;;;3.78;3.22;;;23.70;69.70;;;;;;10141809;28;20788;-62
2021/08/21 09:56:10;;;;;;;5.35;3.80;;;23.80;69.70;;;;;;10149059;28;20016;-60
2021/08/21 10:01:04;;;;;;;4.00;3.08;;;24.00;69.20;;;;;;10145482;28;20056;-61
2021/08/21 10:05:55;;;;;;;6.80;4.22;;;24.10;69.10;;;;;;10151966;28;20052;-59
2021/08/21 10:10:51;;;;;;;4.55;2.88;;;24.10;69.00;;;;;;10149110;28;20072;-60
2021/08/21 10:15:42;;;;;;;4.40;2.97;;;24.20;69.20;;;;;;10150428;28;20021;-61
2021/08/21 10:20:34;;;;;;;5.43;3.80;;;24.20;68.70;;;;;;10149998;28;20398;-60
2021/08/21 10:25:26;;;;;;;6.43;4.00;;;24.30;68.70;;;;;;10147413;28;20578;-61
2021/08/21 10:30:20;;;;;;;4.22;2.90;;;24.40;68.50;;;;;;10145897;28;20556;-62
2021/08/21 10:35:14;;;;;;;5.20;2.77;;;24.50;68.30;;;;;;10140480;28;20016;-61
2021/08/21 10:40:27;;;;;;;4.63;3.88;;;24.60;68.10;;;;;;10139434;28;20052;-60
2021/08/21 10:45:40;;;;;;;5.32;3.75;;;24.80;67.70;;;;;;10147997;28;20038;-59
2021/08/21 10:50:33;;;;;;;6.07;3.28;;;24.90;67.50;;;;;;10140869;28;20129;-60
2021/08/21 10:55:38;;;;;;;4.45;2.97;;;25.00;67.20;;;;;;10137892;28;20033;-60
2021/08/21 11:00:38;;;;;;;4.53;3.55;;;25.10;66.70;;;;;;10142423;28;20044;-60
2021/08/21 11:05:52;;;;;;;4.90;2.88;;;25.30;66.20;;;;;;10128156;28;20063;-59
2021/08/21 11:10:43;;;;;;;6.53;3.97;;;25.40;65.90;;;;;;10145012;28;20048;-59
2021/08/21 11:15:34;;;;;;;4.60;3.60;;;25.30;66.10;;;;;;10146602;28;20028;-59
2021/08/21 11:20:35;;;;;;;5.05;3.22;;;25.50;66.00;;;;;;10140817;28;20032;-62
2021/08/21 11:25:26;;;;;;;4.15;3.20;;;25.50;65.70;;;;;;10141932;28;20047;-59
2021/08/21 11:30:21;;;;;;;4.28;3.30;;;25.60;65.50;;;;;;10147318;28;20570;-60
2021/08/21 11:35:26;;;;;;;3.90;2.75;;;25.70;65.50;;;;;;10121291;28;20020;-60
2021/08/21 11:40:18;;;;;;;6.57;3.45;;;25.80;65.30;;;;;;10136998;28;20115;-61
2021/08/21 11:45:11;;;;;;;5.18;3.38;;;25.90;65.20;;;;;;10147487;28;20036;-62
2021/08/21 11:50:19;;;;;;;3.67;2.95;;;26.00;65.00;;;;;;10133370;28;20005;-60
2021/08/21 11:55:11;;;;;;;5.38;3.35;;;26.20;64.50;;;;;;10137816;28;20032;-60
2021/08/21 12:00:18;;;;;;;5.30;3.03;;;26.30;64.40;;;;;;10143987;28;20425;-59
2021/08/21 12:05:09;;;;;;;3.75;3.10;;;26.40;63.80;;;;;;10135504;28;20034;-60
2021/08/21 12:09:59;;;;;;;4.65;3.67;;;26.50;64.00;;;;;;10134355;28;20429;-60
2021/08/21 12:14:50;;;;;;;5.60;3.10;;;26.60;63.60;;;;;;10132492;28;20051;-59
2021/08/21 12:19:41;;;;;;;4.70;3.13;;;26.80;63.30;;;;;;10137274;28;20176;-59
2021/08/21 12:24:32;;;;;;;4.22;2.80;;;27.00;63.00;;;;;;10139761;28;20101;-60
2021/08/21 12:29:29;;;;;;;3.35;2.55;;;27.20;62.80;;;;;;10135406;28;20517;-59
2021/08/21 12:34:24;;;;;;;4.63;3.45;;;27.60;62.30;;;;;;10138171;28;20073;-60
2021/08/21 12:39:26;;;;;;;3.33;2.95;;;27.80;62.60;;;;;;10137313;28;20044;-61
2021/08/21 12:44:20;;;;;;;4.33;2.60;;;28.10;62.40;;;;;;10137833;28;20031;-60
2021/08/21 12:49:11;;;;;;;9.65;3.42;;;28.50;62.70;;;;;;10144381;28;20070;-60
2021/08/21 12:54:06;;;;;;;5.18;3.10;;;28.80;62.60;;;;;;10130790;28;20035;-61
2021/08/21 12:59:10;;;;;;;3.63;3.05;;;29.10;61.90;;;;;;10138629;28;20483;-60
2021/08/21 13:04:09;;;;;;;4.25;2.90;;;29.60;61.30;;;;;;10133483;28;20110;-62
2021/08/21 13:09:00;;;;;;;5.13;3.47;;;29.90;60.70;;;;;;10118239;28;20040;-60
2021/08/21 13:13:50;;;;;;;4.47;3.83;;;30.40;60.30;;;;;;10135027;28;20044;-61
2021/08/21 13:18:41;;;;;;;3.83;3.33;;;31.30;58.90;;;;;;10139869;28;20040;-58
2021/08/21 13:23:32;;;;;;;5.83;3.77;;;32.20;57.00;;;;;;10149529;28;20036;-60
2021/08/21 13:28:24;;;;;;;4.25;3.33;;;33.00;55.00;;;;;;10155291;28;20452;-59
2021/08/21 13:33:15;;;;;;;5.47;3.58;;;33.40;53.00;;;;;;10148980;28;20040;-60
2021/08/21 13:38:06;;;;;;;3.20;2.65;;;33.90;50.70;;;;;;10134450;28;20132;-62
2021/08/21 13:42:56;;;;;;;4.77;3.00;;;34.50;49.30;;;;;;10151418;28;20437;-61
2021/08/21 13:47:47;;;;;;;4.17;3.10;;;35.20;48.30;;;;;;10139433;28;20082;-62
2021/08/21 13:52:38;;;;;;;4.55;3.25;;;35.50;47.20;;;;;;10140222;28;20610;-62
2021/08/21 13:57:28;;;;;;;3.78;3.30;;;36.00;46.30;;;;;;10132129;28;20024;-62
2021/08/21 14:02:20;;;;;;;3.30;3.00;;;35.90;45.70;;;;;;10143609;28;20036;-62
2021/08/21 14:07:11;;;;;;;4.15;3.05;;;36.10;45.40;;;;;;10143256;28;20647;-62
2021/08/21 14:12:02;;;;;;;3.78;2.92;;;36.20;44.80;;;;;;10128494;28;20309;-61
2021/08/21 14:16:53;;;;;;;5.40;3.05;;;35.90;44.60;;;;;;10138911;28;20029;-61
2021/08/21 14:21:45;;;;;;;2.92;2.63;;;35.50;44.90;;;;;;10141377;28;20049;-62
2021/08/21 14:26:36;;;;;;;3.95;2.75;;;35.40;44.70;;;;;;10133946;28;20118;-61
2021/08/21 14:31:27;;;;;;;3.50;3.20;;;35.60;44.50;;;;;;10152842;28;20605;-61
2021/08/21 14:36:19;;;;;;;5.47;3.63;;;35.60;44.40;;;;;;10141041;28;20028;-61
2021/08/21 14:41:09;;;;;;;5.82;3.40;;;35.50;44.30;;;;;;10146014;28;20498;-61
2021/08/21 14:46:00;;;;;;;3.35;2.90;;;35.50;44.10;;;;;;10144670;28;20035;-61
2021/08/21 14:50:51;;;;;;;3.63;2.67;;;35.30;44.10;;;;;;10146585;28;20085;-61
2021/08/21 14:55:41;;;;;;;3.20;2.60;;;34.90;44.50;;;;;;10143652;28;20027;-61
2021/08/21 15:00:32;;;;;;;3.23;2.93;;;34.60;44.30;;;;;;10140543;28;20044;-61
2021/08/21 15:05:23;;;;;;;4.20;3.33;;;34.70;44.10;;;;;;10146305;28;20016;-62
2021/08/21 15:10:13;;;;;;;3.57;2.37;;;34.70;44.10;;;;;;10139100;28;20032;-62
2021/08/21 15:15:04;;;;;;;2.77;2.57;;;34.30;43.70;;;;;;10137410;28;20036;-62
2021/08/21 15:19:55;;;;;;;3.67;3.10;;;34.20;43.80;;;;;;10151295;28;20414;-62
2021/08/21 15:24:46;;;;;;;2.60;2.37;;;34.30;44.40;;;;;;10151923;28;20459;-61
2021/08/21 15:29:38;;;;;;;3.20;2.90;;;34.60;43.30;;;;;;10142958;28;20028;-63
2021/08/21 15:34:29;;;;;;;6.35;3.90;;;35.00;42.90;;;;;;10144282;28;20467;-62
2021/08/21 15:39:20;;;;;;;4.80;3.17;;;35.10;42.90;;;;;;10135261;28;20037;-62
2021/08/21 15:44:10;;;;;;;3.37;2.80;;;35.40;42.50;;;;;;10141737;28;20394;-62
2021/08/21 15:49:03;;;;;;;4.57;3.17;;;35.60;42.00;;;;;;10143506;28;20107;-61
2021/08/21 15:53:53;;;;;;;2.80;2.58;;;35.10;42.10;;;;;;10140209;28;20017;-63
2021/08/21 15:58:44;;;;;;;4.15;3.10;;;35.10;42.00;;;;;;10147488;28;20040;-62
2021/08/21 16:03:37;;;;;;;3.22;2.88;;;35.50;41.30;;;;;;10150515;28;20074;-62
2021/08/21 16:08:28;;;;;;;3.50;2.65;;;35.80;41.00;;;;;;10148514;28;20067;-63
2021/08/21 16:13:18;;;;;;;3.70;2.85;;;35.70;41.00;;;;;;10144620;28;20513;-63
2021/08/21 16:18:09;;;;;;;3.15;2.80;;;34.50;41.90;;;;;;10137139;28;20051;-63
2021/08/21 16:23:01;;;;;;;3.35;2.63;;;33.30;43.30;;;;;;10146257;28;20412;-63
2021/08/21 16:27:52;;;;;;;6.13;3.35;;;33.80;42.60;;;;;;10137778;28;20055;-63
2021/08/21 16:32:43;;;;;;;3.50;3.03;;;33.20;43.20;;;;;;10140567;28;20024;-62
2021/08/21 16:37:34;;;;;;;4.20;2.70;;;34.10;42.50;;;;;;10135658;28;20109;-63
2021/08/21 16:42:24;;;;;;;4.93;3.08;;;34.30;42.30;;;;;;10135502;28;20503;-64
2021/08/21 16:47:15;;;;;;;3.95;2.95;;;33.50;43.00;;;;;;10143057;28;20200;-63
2021/08/21 16:52:06;;;;;;;3.53;2.80;;;32.80;44.10;;;;;;10140925;28;20340;-63
2021/08/21 16:56:57;;;;;;;4.10;3.10;;;31.70;45.50;;;;;;10148369;28;20032;-65
2021/08/21 17:01:48;;;;;;;4.72;3.17;;;30.90;46.80;;;;;;10158011;28;20032;-62
2021/08/21 17:06:39;;;;;;;7.03;3.33;;;30.60;47.00;;;;;;10141898;28;20024;-62
2021/08/21 17:11:30;;;;;;;3.08;2.72;;;31.80;45.60;;;;;;10154683;28;20040;-62
2021/08/21 17:16:21;;;;;;;3.88;3.10;;;31.60;45.60;;;;;;10153451;28;20063;-61
2021/08/21 17:21:13;;;;;;;4.38;2.92;;;30.80;47.00;;;;;;10138860;28;20154;-62
2021/08/21 17:26:04;;;;;;;4.32;2.97;;;30.30;47.90;;;;;;10149116;28;20059;-60
2021/08/21 17:30:55;;;;;;;4.55;3.03;;;29.70;48.90;;;;;;10151596;28;20058;-59
2021/08/21 17:40:21;;;;;;;5.55;3.80;;;29.00;49.60;;;;;;10129419;27;20394;-61
2021/08/21 17:45:12;;;;;;;5.55;2.88;;;28.80;50.10;;;;;;10112098;28;20395;-58
2021/08/21 17:50:03;;;;;;;4.97;3.40;;;28.60;50.30;;;;;;10108729;28;20534;-61
2021/08/21 17:54:54;;;;;;;4.20;3.28;;;28.50;50.70;;;;;;10110481;28;20031;-61
2021/08/21 17:59:45;;;;;;;5.45;3.30;;;28.40;51.20;;;;;;10106994;28;20056;-63
2021/08/21 18:04:35;;;;;;;5.22;3.95;;;28.30;51.50;;;;;;10103022;28;20062;-61
2021/08/21 18:09:26;;;;;;;6.43;3.13;;;28.20;51.90;;;;;;10114649;28;20172;-60
2021/08/21 18:14:17;;;;;;;4.28;3.33;;;28.20;52.30;;;;;;10110521;28;20124;-60
2021/08/21 18:19:09;;;;;;;5.10;3.28;;;28.10;52.50;;;;;;10105057;28;20216;-59
2021/08/21 18:24:00;;;;;;;6.70;4.20;;;28.00;52.70;;;;;;10104263;28;20490;-58
2021/08/21 18:28:51;;;;;;;4.30;3.40;;;27.90;52.90;;;;;;10107215;28;20037;-61
2021/08/21 18:33:43;;;;;;;5.30;3.22;;;27.90;53.80;;;;;;10104123;28;20013;-60
2021/08/21 18:38:35;;;;;;;5.07;3.70;;;27.80;53.40;;;;;;10127314;28;20427;-60
2021/08/21 18:43:26;;;;;;;5.65;3.95;;;27.70;53.80;;;;;;10146443;28;20490;-61
2021/08/21 18:48:17;;;;;;;8.32;4.30;;;27.60;54.00;;;;;;10138635;28;20294;-62
2021/08/21 18:53:07;;;;;;;6.53;3.67;;;27.60;54.30;;;;;;10125405;28;20047;-62
2021/08/21 18:57:58;;;;;;;8.45;4.10;;;27.50;54.60;;;;;;10123272;28;20098;-62
2021/08/21 19:02:49;;;;;;;6.07;4.05;;;27.50;54.90;;;;;;10103320;28;20514;-62
2021/08/21 19:07:39;;;;;;;9.27;4.10;;;27.40;55.10;;;;;;10126122;28;20921;-62
2021/08/21 19:12:33;;;;;;;8.18;4.57;;;27.40;55.30;;;;;;10118121;28;20040;-59
2021/08/21 19:17:24;;;;;;;6.43;4.40;;;27.30;55.70;;;;;;10111334;28;20045;-62
2021/08/21 19:22:14;;;;;;;6.60;4.10;;;27.30;56.00;;;;;;10121510;28;20107;-60
2021/08/21 19:27:08;;;;;;;5.15;3.80;;;27.20;56.20;;;;;;10113517;28;20271;-62
2021/08/21 19:31:58;;;;;;;8.13;4.70;;;27.30;56.30;;;;;;10121468;28;20039;-60
2021/08/21 19:36:49;;;;;;;7.00;5.43;;;27.30;56.40;;;;;;10121084;28;20395;-65
2021/08/21 19:41:40;;;;;;;12.82;5.93;;;27.20;56.60;;;;;;10116271;28;20474;-61
2021/08/21 19:46:30;;;;;;;7.13;4.97;;;27.20;56.90;;;;;;10113328;28;20036;-60
2021/08/21 19:51:21;;;;;;;8.07;5.53;;;27.10;57.20;;;;;;10114644;28;20383;-60
2021/08/21 19:56:12;;;;;;;7.85;4.80;;;27.10;57.40;;;;;;10097822;28;20071;-60
2021/08/21 20:01:03;;;;;;;8.52;5.10;;;27.10;57.60;;;;;;10112932;28;20029;-60
2021/08/21 20:05:53;;;;;;;9.40;6.22;;;27.10;57.60;;;;;;10118504;28;20494;-62
2021/08/21 20:10:45;;;;;;;9.80;5.30;;;27.00;57.80;;;;;;10105833;28;20021;-60
2021/08/21 20:15:36;;;;;;;8.18;5.85;;;27.00;57.90;;;;;;10121377;28;20033;-60
2021/08/21 20:20:27;;;;;;;9.10;4.68;;;26.90;57.90;;;;;;10116010;28;20025;-61
2021/08/21 20:25:18;;;;;;;7.75;5.15;;;26.90;58.10;;;;;;10112567;28;20037;-61
2021/08/21 20:30:10;;;;;;;8.88;4.95;;;26.90;58.30;;;;;;10113253;28;20071;-61
2021/08/21 20:35:01;;;;;;;5.95;3.90;;;26.80;58.30;;;;;;10113504;28;20029;-61
2021/08/21 20:39:52;;;;;;;4.82;3.42;;;26.80;58.60;;;;;;10111419;28;20052;-62
2021/08/21 20:44:42;;;;;;;6.38;4.82;;;26.70;58.90;;;;;;10115040;28;20033;-60
2021/08/21 20:49:34;;;;;;;6.75;4.63;;;26.60;59.00;;;;;;10113506;28;20391;-60
2021/08/21 20:54:24;;;;;;;7.75;4.35;;;26.70;59.50;;;;;;10109627;28;20029;-61
2021/08/21 20:59:15;;;;;;;6.35;4.10;;;26.60;59.60;;;;;;10108967;28;20044;-62
2021/08/21 21:04:06;;;;;;;7.38;4.63;;;26.50;59.80;;;;;;10110732;28;20390;-61
2021/08/21 21:08:56;;;;;;;6.80;3.97;;;26.50;60.00;;;;;;10102291;28;20025;-62
2021/08/21 21:13:47;;;;;;;9.35;4.82;;;26.30;60.40;;;;;;10109840;28;20733;-61
2021/08/21 21:18:38;;;;;;;9.50;4.30;;;26.30;60.70;;;;;;10112045;28;20553;-60
2021/08/21 21:23:29;;;;;;;6.63;4.38;;;26.10;61.20;;;;;;10107185;28;20613;-60
2021/08/21 21:28:20;;;;;;;11.10;5.78;;;26.00;61.40;;;;;;10115211;28;20028;-60
2021/08/21 21:33:11;;;;;;;7.30;5.50;;;26.00;61.70;;;;;;10119323;28;20045;-62
2021/08/21 21:38:02;;;;;;;6.47;4.85;;;26.10;62.00;;;;;;10117239;28;20052;-61
2021/08/21 21:42:52;;;;;;;8.60;5.72;;;26.10;61.90;;;;;;10116691;28;20035;-62
2021/08/21 21:47:43;;;;;;;7.22;5.15;;;25.90;62.20;;;;;;10108774;28;20028;-61
2021/08/21 21:52:34;;;;;;;7.05;4.85;;;26.00;62.50;;;;;;10115527;28;20107;-61
2021/08/21 21:57:25;;;;;;;14.00;7.57;;;26.00;62.40;;;;;;10112084;28;20032;-61
2021/08/21 22:02:17;;;;;;;11.05;6.80;;;26.00;62.30;;;;;;10107314;28;20033;-62
2021/08/21 22:07:07;;;;;;;10.68;5.82;;;26.10;62.50;;;;;;10113928;28;20028;-59
2021/08/21 22:11:58;;;;;;;9.18;6.30;;;26.10;62.60;;;;;;10107720;28;20024;-60
2021/08/21 22:16:49;;;;;;;8.85;6.03;;;26.10;62.90;;;;;;10111391;28;20040;-61
2021/08/21 22:21:39;;;;;;;6.72;4.38;;;26.00;63.10;;;;;;10097100;28;20179;-61
2021/08/21 22:26:30;;;;;;;6.53;3.53;;;25.20;64.90;;;;;;10117204;28;20033;-61
2021/08/21 22:31:21;;;;;;;4.28;3.22;;;24.80;65.80;;;;;;10119993;28;20039;-60
2021/08/21 22:36:12;;;;;;;7.55;3.20;;;24.70;65.90;;;;;;10113890;28;20052;-61
2021/08/21 22:41:03;;;;;;;6.38;2.50;;;24.70;65.70;;;;;;10112693;28;20032;-61
2021/08/21 22:45:54;;;;;;;2.88;2.00;;;24.70;65.60;;;;;;10112025;28;20585;-61
2021/08/21 22:50:45;;;;;;;3.42;2.42;;;24.40;65.90;;;;;;10124699;28;20463;-62
2021/08/21 22:55:35;;;;;;;6.32;2.53;;;22.50;69.10;;;;;;10117214;28;20028;-59
2021/08/21 23:00:26;;;;;;;4.72;2.28;;;20.50;77.80;;;;;;10119220;28;20045;-59
2021/08/21 23:05:17;;;;;;;5.32;2.10;;;19.80;83.80;;;;;;10117498;28;20518;-59
2021/08/21 23:10:09;;;;;;;5.22;1.95;;;19.60;90.50;;;;;;10123191;28;20031;-59
2021/08/21 23:15:00;;;;;;;3.78;1.55;;;19.90;92.00;;;;;;10116158;28;20036;-60
2021/08/21 23:19:50;;;;;;;2.50;1.95;;;20.20;92.70;;;;;;10125454;28;20298;-59
2021/08/21 23:24:41;;;;;;;3.47;1.98;;;20.50;93.30;;;;;;10118796;28;20110;-59
2021/08/21 23:29:34;;;;;;;3.92;2.45;;;20.80;94.00;;;;;;10119409;28;20081;-59
2021/08/21 23:34:25;;;;;;;3.40;2.03;;;20.90;94.10;;;;;;10095924;28;20119;-60
2021/08/21 23:39:16;;;;;;;5.22;2.10;;;21.00;94.30;;;;;;10110523;28;20304;-58
2021/08/21 23:44:06;;;;;;;6.10;3.10;;;21.10;95.10;;;;;;10118219;28;20627;-55
2021/08/21 23:48:59;;;;;;;3.38;2.17;;;21.10;95.30;;;;;;10122473;28;20513;-58
2021/08/21 23:53:54;;;;;;;3.67;2.30;;;21.20;95.80;;;;;;10115290;28;20035;-58
2021/08/21 23:58:45;;;;;;;4.63;2.53;;;21.40;95.50;;;;;;10104177;28;20045;-51
